createdAt,value
2022-08-16T00:10:20.655Z,99687.44
2022-08-16T00:20:25.322Z,99698.02
2022-08-16T00:30:45.851Z,99701.02
2022-08-16T00:41:05.981Z,99701.10
2022-08-16T00:51:41.012Z,99701.52
2022-08-16T01:02:30.365Z,99707.80
2022-08-16T01:13:06.374Z,99695.73
2022-08-16T01:24:51.631Z,99699.40
2022-08-16T01:34:56.948Z,99686.92
2022-08-16T01:45:40.419Z,99680.27
2022-08-16T01:56:24.264Z,99664.51
2022-08-16T02:07:17.253Z,99658.35
2022-08-16T02:17:57.748Z,99655.73
2022-08-16T02:28:23.691Z,99646.17
2022-08-16T02:38:55.582Z,99647.95
2022-08-16T02:49:07.142Z,99651.16
2022-08-16T02:59:19.184Z,99652.73
2022-08-16T03:09:32.654Z,99648.17
2022-08-16T03:21:23.957Z,99651.42
2022-08-16T03:31:53.558Z,99641.27
2022-08-16T03:54:17.930Z,99661.45
2022-08-16T04:04:54.580Z,99672.06
2022-08-16T04:15:24.819Z,99675.49
2022-08-16T04:26:22.591Z,99688.98
2022-08-16T04:37:07.526Z,99688.28
2022-08-16T04:47:36.403Z,99692.63
2022-08-16T04:58:43.768Z,99700.80
2022-08-16T05:08:47.189Z,99699.88
2022-08-16T05:19:16.374Z,99709.80
2022-08-16T05:29:57.837Z,99716.52
2022-08-16T05:40:20.125Z,99716.95
2022-08-16T05:51:07.929Z,99701.77
2022-08-16T06:01:23.100Z,99712.75
2022-08-16T06:11:50.434Z,99712.73
2022-08-16T06:23:02.835Z,99713.98
2022-08-16T06:33:41.726Z,99720.43
2022-08-16T06:44:08.016Z,99730.98
2022-08-16T06:54:35.980Z,99727.52
2022-08-16T07:04:54.382Z,99739.84
2022-08-16T07:15:50.550Z,99736.16
2022-08-16T07:25:29.220Z,99737.35
2022-08-16T07:35:51.465Z,99733.79
2022-08-16T07:46:39.647Z,99723.00
2022-08-16T07:56:54.863Z,99725.12
2022-08-16T08:07:09.610Z,99722.64
2022-08-16T08:17:43.010Z,99723.64
2022-08-16T08:39:55.317Z,99731.02
2022-08-16T09:25:11.180Z,99744.64
2022-08-16T09:48:11.150Z,99742.30
2022-08-16T09:59:20.976Z,99761.10
2022-08-16T10:10:30.760Z,99765.08
2022-08-16T10:21:09.431Z,99773.27
2022-08-16T10:32:31.950Z,99781.55
2022-08-16T10:54:32.111Z,99787.92
2022-08-16T11:29:15.268Z,99817.89
2022-08-16T11:39:38.279Z,99821.84
2022-08-16T11:50:52.959Z,99820.30
2022-08-16T12:25:21.651Z,99813.66
2022-08-16T12:47:37.301Z,99773.96
2022-08-16T13:22:05.397Z,99751.86
2022-08-16T13:44:00.606Z,99737.58
2022-08-16T13:55:18.113Z,99718.15
2022-08-16T14:06:11.432Z,99721.05
2022-08-16T14:28:10.451Z,99719.09
2022-08-16T14:39:52.630Z,99706.09
2022-08-16T14:50:53.695Z,99700.42
2022-08-16T16:12:51.261Z,99725.54
2022-08-16T16:23:27.221Z,99732.64
2022-08-16T16:35:16.234Z,99748.27
2022-08-16T16:57:16.919Z,99766.17
2022-08-16T17:08:04.777Z,99768.27
2022-08-16T17:40:25.477Z,99790.35
2022-08-16T17:51:39.590Z,99788.48
2022-08-16T18:14:51.324Z,99785.35
2022-08-16T18:57:45.500Z,99807.09
2022-08-16T19:31:23.862Z,99818.81
2022-08-16T19:53:42.604Z,99824.88
2022-08-16T20:03:46.391Z,99824.85
2022-08-16T20:14:25.517Z,99828.10
2022-08-16T20:24:34.554Z,99827.46
2022-08-16T20:35:03.523Z,99834.89
2022-08-16T20:45:08.371Z,99835.70
2022-08-16T20:55:22.414Z,99830.24
2022-08-16T21:05:31.918Z,99832.50
2022-08-16T21:16:30.210Z,99828.42
2022-08-16T21:27:19.220Z,99828.70
2022-08-16T21:37:36.323Z,99826.15
2022-08-16T21:48:11.015Z,99831.48
2022-08-16T21:58:25.197Z,99834.31
2022-08-16T22:08:50.982Z,99820.63
2022-08-16T22:19:11.805Z,99825.27
2022-08-16T22:29:48.105Z,99840.60
2022-08-16T22:40:40.579Z,99831.74
2022-08-16T22:50:56.977Z,99837.45
2022-08-16T23:01:22.140Z,99832.55
2022-08-16T23:12:08.106Z,99824.75
2022-08-16T23:23:17.628Z,99825.60
2022-08-16T23:33:19.393Z,99830.13
2022-08-16T23:43:34.684Z,99826.92
2022-08-16T23:54:03.771Z,99813.17
